Portada
METAR-TAF:

METAR-TAF

Aeroports :

Illes Cocos, Austràlia

latitud: 12-11S, longitud: 096-49E, altitud: 3 m

Observació

L'informe es va fer fa 20 minuts, a les 12:00 UTC
Vent 9 kt del Est/Sud-Est
Temperatura 28°C
Humitat 74%
Pressió 1012 hPa
Visibilitat 10 km o més
Núvols disperses a una alçada de 2700 ft
Núvols disperses a una alçada de 3200 ft

METAR: YPCC 191200Z AUTO 12009KT 9999 // SCT027 SCT032 28/23 Q1012

Hora: 18:50 (12:20 UTC)

Pronòstic

L'informe es va fer fa 1 hora i 21 minuts, a les 10:59 UTC
Pronòstic vàlid del 19 a les 12 UTC al 20 a les 12 UTC
Vent 10 kt del Est
Visibilitat 10 km o més
Núvols disperses a una alçada de 2500 ft
xàfecs de pluja
Temporalment
l' 20 a les 00 UTC al 20 a les 12 UTC
Visibilitat: 3000 m
Cel ennuvolat a una alçada de 1000 ft
xàfecs de pluja

TAF: YPCC 191059Z 1912/2012 09010KT 9999 -SHRA SCT025 TEMPO 2000/2012 3000 SHRA BKN010

Observacions i pronòstics meteorològics de més de 4000 aeroports (METAR i TAF).

Les estacions disponibles són els punts grocs i vermells al mapa.

Posi el ratolí al punt desitjat per veure el nom de l'estació.

Feu clic per veure les observacions i els pronòstics meteorològics.

Per canviar el mapa: feu clic els botons verds amb una creu de color negre per apropar; al botó verd amb un guió per allunyar la imatge; o en les fletxes verdes per a mapes adjacents.


METAR-TAF: